createdAt,value
2023-03-17T00:01:54.687Z,101052.44
2023-03-17T00:04:24.501Z,101061.41
2023-03-17T00:06:52.914Z,101066.59
2023-03-17T00:09:22.442Z,101064.72
2023-03-17T00:11:50.189Z,101053.91
2023-03-17T00:14:19.950Z,101068.81
2023-03-17T00:16:52.825Z,101056.03
2023-03-17T00:19:33.288Z,101047.59
2023-03-17T00:22:01.680Z,101061.41
2023-03-17T00:24:30.046Z,101046.03
2023-03-17T00:26:57.486Z,101049.84
2023-03-17T00:29:25.577Z,101047.28
2023-03-17T00:31:53.660Z,101042.69
2023-03-17T00:34:23.499Z,101040.38
2023-03-17T00:36:52.397Z,101051.00
2023-03-17T00:39:19.983Z,101043.91
2023-03-17T00:41:50.355Z,101046.16
2023-03-17T00:44:18.670Z,101027.31
2023-03-17T00:46:46.600Z,101041.63
2023-03-17T00:49:21.378Z,101040.00
2023-03-17T00:51:49.897Z,101053.84
2023-03-17T00:54:19.566Z,101053.09
2023-03-17T00:56:48.523Z,101049.13
2023-03-17T00:59:26.168Z,101051.53
2023-03-17T01:01:54.104Z,101049.63
2023-03-17T01:04:21.834Z,101057.50
2023-03-17T01:06:50.560Z,101039.66
2023-03-17T01:09:20.911Z,101053.72
2023-03-17T01:11:49.280Z,101041.00
2023-03-17T01:14:17.054Z,101032.00
2023-03-17T01:16:44.904Z,101036.22
2023-03-17T01:19:13.813Z,101039.94
2023-03-17T01:21:42.603Z,101029.06
2023-03-17T01:24:10.828Z,101016.75
2023-03-17T01:26:39.085Z,101032.78
2023-03-17T01:29:08.023Z,101022.13
2023-03-17T01:31:35.550Z,101027.25
2023-03-17T01:34:04.430Z,101029.59
2023-03-17T01:36:31.702Z,101027.22
2023-03-17T01:38:59.599Z,101013.25
2023-03-17T01:41:26.917Z,101017.28
2023-03-17T01:43:54.456Z,101006.50
2023-03-17T01:46:34.225Z,101019.28
2023-03-17T01:49:17.492Z,101015.09
2023-03-17T01:51:54.618Z,101016.75
2023-03-17T01:54:43.369Z,101017.91
2023-03-17T01:57:18.629Z,101015.03
2023-03-17T01:59:55.529Z,101008.28
2023-03-17T02:02:31.032Z,101005.63
2023-03-17T02:04:59.289Z,101000.09
2023-03-17T02:07:27.659Z,100992.38
2023-03-17T02:09:57.369Z,100991.78
2023-03-17T02:12:25.861Z,100996.91
2023-03-17T02:14:53.532Z,101009.47
2023-03-17T02:17:23.778Z,101009.97
2023-03-17T02:19:51.937Z,101002.13
2023-03-17T02:22:19.978Z,100994.50
2023-03-17T02:24:58.578Z,101008.41
2023-03-17T02:27:39.613Z,100993.72
2023-03-17T02:30:10.992Z,100986.38
2023-03-17T02:32:38.886Z,100985.22
2023-03-17T02:35:08.898Z,100993.41
2023-03-17T02:37:38.500Z,100984.59
2023-03-17T02:40:07.795Z,100981.69
2023-03-17T02:42:35.777Z,100974.66
2023-03-17T02:45:03.493Z,100979.25
2023-03-17T02:47:30.805Z,100967.13
2023-03-17T02:49:58.925Z,100993.75
2023-03-17T02:52:26.424Z,100979.78
2023-03-17T02:54:53.893Z,100987.00
2023-03-17T02:57:21.543Z,100978.59
2023-03-17T02:59:49.201Z,100982.94
2023-03-17T03:02:16.966Z,100978.59
2023-03-17T03:04:44.557Z,100973.59
2023-03-17T03:07:12.367Z,100988.00
2023-03-17T03:09:40.078Z,100976.53
2023-03-17T03:12:10.123Z,100978.59
2023-03-17T03:14:37.797Z,100988.47
2023-03-17T03:17:05.491Z,100968.31
2023-03-17T03:19:33.063Z,100960.00
2023-03-17T03:22:00.350Z,100978.81
2023-03-17T03:24:28.048Z,100983.72
2023-03-17T03:26:55.280Z,100991.38
2023-03-17T03:29:23.078Z,100984.19
2023-03-17T03:31:51.039Z,100979.44
2023-03-17T03:34:18.831Z,100985.84
2023-03-17T03:36:46.086Z,100988.88
2023-03-17T03:39:14.547Z,100991.00
2023-03-17T03:41:42.415Z,100995.72
2023-03-17T03:44:10.091Z,100981.28
2023-03-17T03:46:37.346Z,100992.19
2023-03-17T03:49:05.145Z,100994.53
2023-03-17T03:51:32.350Z,100996.53
2023-03-17T03:54:01.330Z,100998.53
2023-03-17T03:56:28.619Z,100995.19
2023-03-17T03:58:57.223Z,100993.34
2023-03-17T04:01:24.823Z,100989.78
2023-03-17T04:03:52.288Z,100998.28
2023-03-17T04:06:19.536Z,100994.91
2023-03-17T04:08:47.132Z,100986.69
2023-03-17T04:11:14.395Z,100987.09
2023-03-17T04:13:42.045Z,100985.50
2023-03-17T04:16:09.416Z,100987.28
2023-03-17T04:18:37.090Z,100978.97
2023-03-17T04:21:04.532Z,100974.03
2023-03-17T04:23:32.144Z,100949.22
2023-03-17T04:25:59.366Z,100977.66
2023-03-17T04:28:26.972Z,100958.28
2023-03-17T04:30:54.250Z,100956.44
2023-03-17T04:33:21.946Z,100961.13
2023-03-17T04:35:49.273Z,100960.44
2023-03-17T04:38:16.947Z,100977.53
2023-03-17T04:40:44.222Z,100977.88
2023-03-17T04:43:11.769Z,100971.34
2023-03-17T04:45:39.039Z,100974.66
2023-03-17T04:48:06.617Z,100955.50
2023-03-17T04:50:34.514Z,100974.31
2023-03-17T04:53:02.178Z,100960.84
2023-03-17T04:55:29.407Z,100962.47
2023-03-17T04:57:56.925Z,100957.19
2023-03-17T05:00:24.403Z,100956.78
2023-03-17T05:02:51.973Z,100960.44
2023-03-17T05:05:19.192Z,100942.63
2023-03-17T05:07:46.800Z,100958.22
2023-03-17T05:10:14.092Z,100957.91
2023-03-17T05:12:41.711Z,100950.75
2023-03-17T05:15:10.106Z,100950.56
2023-03-17T05:17:37.684Z,100949.81
2023-03-17T05:20:05.799Z,100953.72
2023-03-17T05:22:33.307Z,100957.94
2023-03-17T05:25:00.571Z,100955.28
2023-03-17T05:27:28.317Z,100953.91
2023-03-17T05:29:55.550Z,100961.09
2023-03-17T05:32:24.040Z,100962.66
2023-03-17T05:34:52.144Z,100955.06
2023-03-17T05:37:19.649Z,100955.69
2023-03-17T05:39:47.034Z,100944.91
2023-03-17T05:42:14.524Z,100939.84
2023-03-17T05:44:41.752Z,100955.31
2023-03-17T05:47:09.494Z,100959.50
2023-03-17T05:49:37.046Z,100952.41
2023-03-17T05:52:04.634Z,100947.00
2023-03-17T05:54:31.877Z,100959.44
2023-03-17T05:56:59.471Z,100959.94
2023-03-17T05:59:26.750Z,100959.44
2023-03-17T06:01:54.263Z,100955.19
2023-03-17T06:04:21.972Z,100936.78
2023-03-17T06:06:49.598Z,100946.59
2023-03-17T06:09:16.797Z,100941.56
2023-03-17T06:11:44.356Z,100936.41
2023-03-17T06:14:12.163Z,100950.66
2023-03-17T06:16:39.657Z,100951.00
2023-03-17T06:19:06.971Z,100948.91
2023-03-17T06:21:34.545Z,100953.59
2023-03-17T06:24:02.021Z,100950.97
2023-03-17T06:26:29.540Z,100942.81
2023-03-17T06:28:57.562Z,100943.41
2023-03-17T06:31:24.695Z,100946.66
2023-03-17T06:33:52.255Z,100954.28
2023-03-17T06:36:19.686Z,100944.25
2023-03-17T06:38:47.398Z,100942.31
2023-03-17T06:41:15.125Z,100939.09
2023-03-17T06:43:42.642Z,100942.16
2023-03-17T06:46:09.922Z,100938.09
2023-03-17T06:48:38.330Z,100945.59
2023-03-17T06:51:06.392Z,100955.72
2023-03-17T06:53:33.953Z,100959.09
2023-03-17T06:56:01.207Z,100953.00
2023-03-17T06:58:28.749Z,100962.50
2023-03-17T07:00:56.186Z,100965.72
2023-03-17T07:03:24.250Z,100967.28
2023-03-17T07:05:52.158Z,100975.47
2023-03-17T07:08:19.819Z,100970.88
2023-03-17T07:10:47.010Z,100962.81
2023-03-17T07:13:14.757Z,100962.88
2023-03-17T07:15:42.822Z,100966.44
2023-03-17T07:18:11.222Z,100971.25
2023-03-17T07:20:38.527Z,100963.19
2023-03-17T07:23:06.287Z,100950.94
2023-03-17T07:25:36.817Z,100955.81
2023-03-17T07:28:04.901Z,100949.53
2023-03-17T07:30:32.679Z,100959.31
2023-03-17T07:33:00.295Z,100952.75
2023-03-17T07:35:29.091Z,100949.06
2023-03-17T07:37:57.269Z,100954.38
2023-03-17T07:40:24.865Z,100943.38
2023-03-17T07:42:52.719Z,100943.16
2023-03-17T07:45:20.022Z,100936.94
2023-03-17T07:47:47.511Z,100939.59
2023-03-17T07:50:15.522Z,100937.88
2023-03-17T07:52:43.021Z,100927.56
2023-03-17T07:55:13.071Z,100927.97
2023-03-17T07:57:41.638Z,100936.63
2023-03-17T08:00:09.951Z,100937.16
2023-03-17T08:02:41.181Z,100941.44
2023-03-17T08:05:09.441Z,100929.16
2023-03-17T08:07:39.677Z,100923.34
2023-03-17T08:10:08.214Z,100929.28
2023-03-17T08:12:35.986Z,100929.75
2023-03-17T08:15:03.654Z,100914.94
2023-03-17T08:17:31.916Z,100920.22
2023-03-17T08:19:59.298Z,100929.03
2023-03-17T08:22:27.848Z,100912.47
2023-03-17T08:24:55.729Z,100919.69
2023-03-17T08:27:23.445Z,100921.81
2023-03-17T08:29:51.226Z,100913.16
2023-03-17T08:32:19.006Z,100894.53
2023-03-17T08:34:48.069Z,100884.81
2023-03-17T08:37:15.575Z,100873.97
2023-03-17T08:39:42.760Z,100888.13
2023-03-17T08:42:10.294Z,100894.00
2023-03-17T08:44:37.825Z,100898.31
2023-03-17T08:47:05.579Z,100891.41
2023-03-17T08:49:35.006Z,100891.44
2023-03-17T08:52:03.542Z,100879.84
2023-03-17T08:54:30.849Z,100870.97
2023-03-17T08:56:58.583Z,100883.63
2023-03-17T08:59:25.815Z,100876.09
2023-03-17T09:01:53.371Z,100857.66
2023-03-17T09:04:21.650Z,100880.31
2023-03-17T09:07:02.401Z,100865.84
2023-03-17T09:09:31.245Z,100874.66
2023-03-17T09:11:58.905Z,100867.66
2023-03-17T09:14:26.287Z,100852.41
2023-03-17T09:16:54.609Z,100856.28
2023-03-17T09:19:21.986Z,100861.66
2023-03-17T09:21:50.412Z,100864.25
2023-03-17T09:24:18.916Z,100849.25
2023-03-17T09:26:46.539Z,100867.56
2023-03-17T09:29:13.746Z,100861.59
2023-03-17T09:31:43.092Z,100860.38
2023-03-17T09:34:11.135Z,100858.75
2023-03-17T09:36:38.926Z,100862.69
2023-03-17T09:39:06.717Z,100863.91
2023-03-17T09:42:04.641Z,100850.38
2023-03-17T09:44:53.559Z,100865.81
2023-03-17T09:47:41.641Z,100863.56
2023-03-17T09:50:29.446Z,100845.97
2023-03-17T09:52:58.551Z,100837.28
2023-03-17T09:55:31.781Z,100847.91
2023-03-17T09:58:01.079Z,100841.25
2023-03-17T10:00:29.801Z,100839.28
2023-03-17T10:02:58.630Z,100833.09
2023-03-17T10:05:34.836Z,100827.63
2023-03-17T10:08:31.332Z,100820.94
2023-03-17T10:11:10.977Z,100825.41
2023-03-17T10:14:00.875Z,100826.31
2023-03-17T10:16:41.856Z,100811.53
2023-03-17T10:19:28.525Z,100787.03
2023-03-17T10:22:10.487Z,100779.22
2023-03-17T10:24:43.663Z,100774.44
2023-03-17T10:27:12.529Z,100772.63
2023-03-17T10:29:40.902Z,100772.31
2023-03-17T10:32:12.667Z,100761.22
2023-03-17T10:34:42.501Z,100761.84
2023-03-17T10:37:17.681Z,100748.91
2023-03-17T10:39:51.895Z,100745.44
2023-03-17T10:42:32.325Z,100735.97
2023-03-17T10:45:17.710Z,100743.47
2023-03-17T10:47:49.104Z,100740.75
2023-03-17T10:50:32.510Z,100730.75
2023-03-17T10:53:10.922Z,100743.47
2023-03-17T10:55:38.433Z,100738.22
2023-03-17T10:58:07.968Z,100718.34
2023-03-17T11:00:38.653Z,100726.13
2023-03-17T11:03:23.039Z,100730.97
2023-03-17T11:06:00.609Z,100722.03
2023-03-17T11:08:33.063Z,100731.38
2023-03-17T11:11:00.700Z,100716.53
2023-03-17T11:13:31.141Z,100719.94
2023-03-17T11:16:23.534Z,100715.78
2023-03-17T11:18:56.689Z,100725.38
2023-03-17T11:21:31.876Z,100700.66
2023-03-17T11:24:28.527Z,100712.22
2023-03-17T11:27:00.572Z,100683.50
2023-03-17T11:29:58.369Z,100697.91
2023-03-17T11:32:47.887Z,100695.44
2023-03-17T11:35:39.908Z,100686.13
2023-03-17T11:38:19.823Z,100682.44
2023-03-17T11:41:11.062Z,100692.34
2023-03-17T11:44:02.237Z,100661.06
2023-03-17T11:47:09.105Z,100672.78
2023-03-17T11:49:38.815Z,100658.84
2023-03-17T11:52:12.772Z,100664.50
2023-03-17T11:55:09.666Z,100674.53
2023-03-17T11:57:58.688Z,100672.88
2023-03-17T12:00:33.813Z,100686.81
2023-03-17T12:03:20.882Z,100663.59
2023-03-17T12:05:54.901Z,100678.53
2023-03-17T12:08:25.071Z,100690.47
2023-03-17T12:10:55.667Z,100672.59
2023-03-17T12:13:34.579Z,100670.97
2023-03-17T12:16:33.809Z,100670.38
2023-03-17T12:19:16.957Z,100680.50
2023-03-17T12:21:54.369Z,100660.25
2023-03-17T12:24:34.545Z,100662.06
2023-03-17T12:27:30.353Z,100662.72
2023-03-17T12:30:07.964Z,100668.47
2023-03-17T12:32:56.126Z,100678.59
2023-03-17T12:35:34.962Z,100671.97
2023-03-17T12:38:12.277Z,100669.44
2023-03-17T12:41:05.753Z,100680.53
2023-03-17T12:44:20.693Z,100675.41
2023-03-17T12:47:25.817Z,100669.53
2023-03-17T12:50:05.969Z,100662.41
2023-03-17T12:52:39.253Z,100659.56
2023-03-17T12:55:13.646Z,100644.94
2023-03-17T12:57:46.514Z,100655.34
2023-03-17T13:00:28.464Z,100677.91
2023-03-17T13:03:30.715Z,100666.16
2023-03-17T13:06:01.495Z,100669.81
2023-03-17T13:08:33.304Z,100658.44
2023-03-17T13:11:27.365Z,100645.84
2023-03-17T13:13:54.626Z,100635.00
2023-03-17T13:16:37.764Z,100638.59
2023-03-17T13:19:15.693Z,100632.59
2023-03-17T13:22:17.976Z,100619.16
2023-03-17T13:24:53.610Z,100607.22
2023-03-17T13:27:30.245Z,100608.50
2023-03-17T13:30:22.093Z,100613.13
2023-03-17T13:32:57.564Z,100602.81
2023-03-17T13:35:57.237Z,100575.56
2023-03-17T13:38:48.556Z,100584.34
2023-03-17T13:41:49.468Z,100563.50
2023-03-17T13:44:56.953Z,100576.78
2023-03-17T13:47:27.127Z,100587.25
2023-03-17T13:50:00.878Z,100569.25
2023-03-17T13:52:33.688Z,100550.03
2023-03-17T13:55:18.505Z,100561.59
2023-03-17T13:58:12.208Z,100553.69
2023-03-17T14:00:44.323Z,100556.72
2023-03-17T14:03:17.649Z,100556.69
2023-03-17T14:05:50.993Z,100563.63
2023-03-17T14:08:27.524Z,100535.41
2023-03-17T14:10:59.434Z,100558.31
2023-03-17T14:13:57.156Z,100553.69
2023-03-17T14:16:29.847Z,100521.06
2023-03-17T14:19:20.799Z,100546.13
2023-03-17T14:21:48.488Z,100540.19
2023-03-17T14:24:30.143Z,100542.25
2023-03-17T14:26:57.730Z,100529.44
2023-03-17T14:29:32.006Z,100520.81
2023-03-17T14:32:15.172Z,100519.34
2023-03-17T14:34:44.382Z,100535.44
2023-03-17T14:37:12.842Z,100526.69
2023-03-17T14:39:49.066Z,100517.31
2023-03-17T14:42:20.093Z,100531.16
2023-03-17T14:44:47.549Z,100526.41
2023-03-17T14:47:23.005Z,100529.94
2023-03-17T14:49:53.480Z,100531.16
2023-03-17T14:52:27.968Z,100531.28
2023-03-17T14:54:59.340Z,100522.16
2023-03-17T14:57:31.491Z,100520.44
2023-03-17T15:00:23.029Z,100513.03
2023-03-17T15:02:58.860Z,100516.81
2023-03-17T15:05:41.967Z,100500.50
2023-03-17T15:08:48.267Z,100510.84
2023-03-17T15:11:20.157Z,100500.88
2023-03-17T15:13:48.754Z,100495.00
2023-03-17T15:16:27.863Z,100487.22
2023-03-17T15:19:06.109Z,100488.94
2023-03-17T15:21:38.834Z,100499.38
2023-03-17T15:24:23.205Z,100503.06
2023-03-17T15:26:50.721Z,100503.78
2023-03-17T15:29:18.545Z,100478.06
2023-03-17T15:31:45.857Z,100482.38
2023-03-17T15:34:15.474Z,100494.19
2023-03-17T15:36:47.428Z,100500.84
2023-03-17T15:39:15.065Z,100500.50
2023-03-17T15:41:42.395Z,100495.50
2023-03-17T15:44:09.912Z,100491.72
2023-03-17T15:46:37.415Z,100506.72
2023-03-17T15:49:10.789Z,100498.03
2023-03-17T15:51:38.451Z,100495.13
2023-03-17T15:54:06.012Z,100495.50
2023-03-17T15:56:34.597Z,100509.16
2023-03-17T15:59:02.881Z,100501.81
2023-03-17T16:01:30.205Z,100479.31
2023-03-17T16:03:57.744Z,100490.63
2023-03-17T16:06:25.003Z,100491.88
2023-03-17T16:08:52.564Z,100487.38
2023-03-17T16:11:28.272Z,100488.47
2023-03-17T16:13:57.363Z,100483.59
2023-03-17T16:16:45.927Z,100489.53
2023-03-17T16:19:20.862Z,100499.88
2023-03-17T16:21:49.111Z,100487.47
2023-03-17T16:24:22.908Z,100479.59
2023-03-17T16:26:50.991Z,100480.78
2023-03-17T16:29:21.021Z,100492.09
2023-03-17T16:31:51.015Z,100509.25
2023-03-17T16:34:21.474Z,100495.59
2023-03-17T16:36:50.479Z,100499.50
2023-03-17T16:39:22.566Z,100481.38
2023-03-17T16:41:50.844Z,100485.88
2023-03-17T16:44:20.600Z,100475.56
2023-03-17T16:46:49.336Z,100485.03
2023-03-17T16:49:19.405Z,100481.94
2023-03-17T16:51:48.755Z,100468.59
2023-03-17T16:54:17.184Z,100470.66
2023-03-17T16:56:45.254Z,100471.53
2023-03-17T16:59:19.969Z,100467.75
2023-03-17T17:01:47.238Z,100475.75
2023-03-17T17:04:14.841Z,100449.97
2023-03-17T17:06:42.070Z,100448.63
2023-03-17T17:09:09.629Z,100458.25
2023-03-17T17:11:36.884Z,100451.69
2023-03-17T17:14:04.449Z,100455.03
2023-03-17T17:16:35.699Z,100452.16
2023-03-17T17:19:04.394Z,100469.41
2023-03-17T17:21:33.020Z,100456.75
2023-03-17T17:24:00.607Z,100453.78
2023-03-17T17:26:27.854Z,100454.00
2023-03-17T17:28:55.440Z,100460.66
2023-03-17T17:31:22.776Z,100474.63
2023-03-17T17:33:50.476Z,100481.09
2023-03-17T17:36:18.179Z,100481.56
2023-03-17T17:38:45.931Z,100476.41
2023-03-17T17:41:14.339Z,100479.59
2023-03-17T17:43:42.265Z,100477.66
2023-03-17T17:46:12.580Z,100478.53
2023-03-17T17:48:40.445Z,100469.47
2023-03-17T17:51:07.707Z,100478.97
2023-03-17T17:53:35.372Z,100462.41
2023-03-17T17:56:02.789Z,100475.78
2023-03-17T17:58:30.648Z,100471.47
2023-03-17T18:00:58.276Z,100484.88
2023-03-17T18:03:26.832Z,100473.09
2023-03-17T18:05:56.278Z,100483.72
2023-03-17T18:08:25.619Z,100474.06
2023-03-17T18:10:53.411Z,100471.72
2023-03-17T18:13:21.067Z,100479.28
2023-03-17T18:15:48.390Z,100490.22
2023-03-17T18:18:16.115Z,100490.38
2023-03-17T18:20:43.344Z,100480.78
2023-03-17T18:23:11.267Z,100483.69
2023-03-17T18:25:38.491Z,100475.94
2023-03-17T18:28:06.407Z,100472.75
2023-03-17T18:30:35.314Z,100479.56
2023-03-17T18:33:23.206Z,100475.31
2023-03-17T18:35:52.245Z,100486.09
2023-03-17T18:38:19.873Z,100480.75
2023-03-17T18:40:47.116Z,100483.72
2023-03-17T18:43:14.700Z,100467.28
2023-03-17T18:45:42.001Z,100469.97
2023-03-17T18:48:09.629Z,100468.28
2023-03-17T18:50:37.193Z,100461.44
2023-03-17T18:53:04.985Z,100476.47
2023-03-17T18:55:32.461Z,100486.41
2023-03-17T18:58:00.080Z,100468.09
2023-03-17T19:00:27.428Z,100478.09
2023-03-17T19:02:55.087Z,100466.63
2023-03-17T19:05:22.464Z,100465.91
2023-03-17T19:07:50.072Z,100462.19
2023-03-17T19:10:17.945Z,100456.25
2023-03-17T19:12:47.266Z,100476.03
2023-03-17T19:15:14.726Z,100467.09
2023-03-17T19:17:42.408Z,100471.81
2023-03-17T19:20:10.904Z,100469.09
2023-03-17T19:22:38.454Z,100460.41
2023-03-17T19:25:06.389Z,100461.09
2023-03-17T19:27:33.941Z,100445.31
2023-03-17T19:30:01.182Z,100449.34
2023-03-17T19:32:28.831Z,100433.09
2023-03-17T19:34:56.210Z,100438.19
2023-03-17T19:37:23.749Z,100438.44
2023-03-17T19:39:51.135Z,100438.78
2023-03-17T19:42:18.737Z,100444.22
2023-03-17T19:44:46.053Z,100435.94
2023-03-17T19:47:13.618Z,100440.09
2023-03-17T19:49:41.960Z,100436.19
2023-03-17T19:52:10.406Z,100433.94
2023-03-17T19:54:45.913Z,100423.38
2023-03-17T19:57:14.108Z,100417.94
2023-03-17T19:59:41.520Z,100424.75
2023-03-17T20:02:13.180Z,100426.34
2023-03-17T20:04:40.931Z,100410.97
2023-03-17T20:07:09.581Z,100403.94
2023-03-17T20:09:38.074Z,100420.81
2023-03-17T20:12:06.010Z,100414.22
2023-03-17T20:14:33.269Z,100404.38
2023-03-17T20:17:00.969Z,100408.03
2023-03-17T20:19:29.252Z,100404.75
2023-03-17T20:21:58.594Z,100406.41
2023-03-17T20:24:27.176Z,100420.00
2023-03-17T20:26:57.354Z,100418.81
2023-03-17T20:29:25.874Z,100398.88
2023-03-17T20:31:53.700Z,100386.78
2023-03-17T20:34:21.534Z,100414.09
2023-03-17T20:36:49.531Z,100397.56
2023-03-17T20:39:19.975Z,100380.13
2023-03-17T20:41:51.666Z,100382.00
2023-03-17T20:44:19.834Z,100376.69
2023-03-17T20:46:47.806Z,100390.28
2023-03-17T20:49:15.884Z,100395.72
2023-03-17T20:51:44.051Z,100392.84
2023-03-17T20:54:11.445Z,100390.94
2023-03-17T20:56:39.743Z,100389.94
2023-03-17T20:59:09.692Z,100382.19
2023-03-17T21:01:38.855Z,100386.94
2023-03-17T21:04:09.121Z,100384.31
2023-03-17T21:06:37.564Z,100384.56
2023-03-17T21:09:06.057Z,100363.84
2023-03-17T21:11:34.040Z,100378.34
2023-03-17T21:14:03.467Z,100374.06
2023-03-17T21:16:31.196Z,100379.00
2023-03-17T21:18:58.966Z,100376.44
2023-03-17T21:21:27.383Z,100370.09
2023-03-17T21:23:55.064Z,100380.50
2023-03-17T21:26:23.042Z,100396.69
2023-03-17T21:28:50.572Z,100391.63
2023-03-17T21:31:18.408Z,100396.75
2023-03-17T21:33:48.651Z,100398.22
2023-03-17T21:36:16.992Z,100385.75
2023-03-17T21:38:44.231Z,100377.09
2023-03-17T21:41:22.414Z,100390.72
2023-03-17T21:43:50.619Z,100392.13
2023-03-17T21:46:18.344Z,100384.78
2023-03-17T21:48:45.582Z,100385.59
2023-03-17T21:51:13.174Z,100393.84
2023-03-17T21:53:40.437Z,100392.06
2023-03-17T21:56:08.914Z,100395.25
2023-03-17T21:58:36.697Z,100395.47
2023-03-17T22:01:04.601Z,100397.78
2023-03-17T22:03:32.445Z,100394.19
2023-03-17T22:06:00.312Z,100385.22
2023-03-17T22:08:27.880Z,100383.94
2023-03-17T22:10:55.672Z,100390.78
2023-03-17T22:13:22.952Z,100386.44
2023-03-17T22:15:50.552Z,100395.88
2023-03-17T22:18:18.047Z,100382.34
2023-03-17T22:20:45.627Z,100381.47
2023-03-17T22:23:13.131Z,100387.13
2023-03-17T22:25:40.701Z,100378.66
2023-03-17T22:28:08.700Z,100375.53
2023-03-17T22:30:39.504Z,100385.03
2023-03-17T22:33:07.705Z,100385.97
2023-03-17T22:35:36.647Z,100380.63
2023-03-17T22:38:05.138Z,100388.00
2023-03-17T22:40:33.931Z,100387.16
2023-03-17T22:43:02.249Z,100371.94
2023-03-17T22:45:29.863Z,100386.06
2023-03-17T22:47:57.367Z,100376.91
2023-03-17T22:50:25.472Z,100386.41
2023-03-17T22:52:52.734Z,100383.72
2023-03-17T22:55:20.238Z,100387.59
2023-03-17T22:57:47.629Z,100389.56
2023-03-17T23:00:17.195Z,100383.53
2023-03-17T23:02:46.533Z,100381.94
2023-03-17T23:05:14.655Z,100382.06
2023-03-17T23:07:50.255Z,100377.31
2023-03-17T23:10:25.388Z,100371.91
2023-03-17T23:12:53.180Z,100369.63
2023-03-17T23:15:21.531Z,100372.66
2023-03-17T23:17:48.852Z,100363.53
2023-03-17T23:20:16.865Z,100352.97
2023-03-17T23:22:44.123Z,100358.69
2023-03-17T23:25:13.651Z,100337.13
2023-03-17T23:27:41.462Z,100343.41
2023-03-17T23:30:11.719Z,100333.66
2023-03-17T23:32:40.831Z,100353.78
2023-03-17T23:35:09.500Z,100353.00
2023-03-17T23:37:37.423Z,100355.97
2023-03-17T23:40:06.528Z,100337.38
2023-03-17T23:42:33.929Z,100352.81
2023-03-17T23:45:02.629Z,100339.75
2023-03-17T23:47:30.668Z,100345.97
2023-03-17T23:49:58.219Z,100344.47
2023-03-17T23:52:25.780Z,100353.59
2023-03-17T23:54:54.082Z,100361.06
2023-03-17T23:57:21.737Z,100364.50
2023-03-17T23:59:49.435Z,100358.81
